Time;durP1;ratioP1;P1;durP2;ratioP2;P2;SDS_P1;SDS_P2;PMS_P1;PMS_P2;Temp;Humidity;BMP_temperature;BMP_pressure;BME280_temperature;BME280_humidity;BME280_pressure;Samples;Min_cycle;Max_cycle;Signal;HPM_P1;HPM_P2
2021/09/29 00:00:15;;;;;;;17.33;7.40;;;;;;;10.69;100.00;94063.56;5133945;27;20196;-76
2021/09/29 00:02:41;;;;;;;12.60;6.70;;;;;;;10.66;100.00;94055.31;5133675;27;20690;-76
2021/09/29 00:05:09;;;;;;;12.13;6.07;;;;;;;10.64;100.00;94059.91;5134020;28;20192;-76
2021/09/29 00:07:36;;;;;;;13.00;6.37;;;;;;;10.58;100.00;94061.50;5134022;28;20239;-76
2021/09/29 00:10:04;;;;;;;13.57;5.80;;;;;;;10.58;100.00;94058.88;5133829;28;20249;-76
2021/09/29 00:12:36;;;;;;;13.30;6.00;;;;;;;10.60;100.00;94058.69;5133833;28;20558;-76
2021/09/29 00:15:10;;;;;;;10.02;5.70;;;;;;;10.56;100.00;94068.72;5133714;28;20200;-76
2021/09/29 00:17:36;;;;;;;8.87;6.00;;;;;;;10.49;100.00;94070.47;5133971;28;20200;-77
2021/09/29 00:20:04;;;;;;;9.97;5.87;;;;;;;10.42;100.00;94061.81;5133856;28;20200;-76
2021/09/29 00:22:35;;;;;;;10.70;5.93;;;;;;;10.41;100.00;94066.25;5133786;28;20228;-77
2021/09/29 00:25:01;;;;;;;12.03;6.67;;;;;;;10.38;100.00;94060.59;5116633;28;20236;-76
2021/09/29 00:27:28;;;;;;;16.00;6.50;;;;;;;10.39;100.00;94060.38;5112712;28;20691;-76
2021/09/29 00:30:00;;;;;;;13.63;7.30;;;;;;;10.38;100.00;94071.03;5113118;28;20231;-76
2021/09/29 00:32:26;;;;;;;11.77;6.67;;;;;;;10.31;100.00;94056.09;5112461;28;20202;-76
2021/09/29 00:34:53;;;;;;;9.67;5.97;;;;;;;10.28;100.00;94060.91;5113110;28;20292;-76
2021/09/29 00:37:19;;;;;;;15.57;6.90;;;;;;;10.38;100.00;94058.78;5113009;28;20206;-76
2021/09/29 00:39:46;;;;;;;15.00;6.97;;;;;;;10.33;100.00;94058.56;5113020;28;20201;-76
2021/09/29 00:42:14;;;;;;;9.97;6.80;;;;;;;10.30;100.00;94056.28;5112814;28;20247;-76
2021/09/29 00:44:41;;;;;;;14.50;7.30;;;;;;;10.31;100.00;94063.94;5113139;28;20197;-77
2021/09/29 00:47:12;;;;;;;16.07;6.53;;;;;;;10.29;100.00;94063.31;5113037;28;20266;-76
2021/09/29 00:49:39;;;;;;;11.77;6.10;;;;;;;10.27;100.00;94067.09;5113037;28;20232;-76
2021/09/29 00:52:06;;;;;;;14.03;7.30;;;;;;;10.26;100.00;94066.31;5113042;28;20229;-76
2021/09/29 00:54:33;;;;;;;19.93;6.07;;;;;;;10.26;100.00;94058.47;5112839;28;20197;-76
2021/09/29 00:56:59;;;;;;;17.93;7.93;;;;;;;10.25;100.00;94064.69;5113058;28;20205;-76
2021/09/29 00:59:26;;;;;;;11.73;7.17;;;;;;;10.23;100.00;94073.72;5112720;28;20716;-76
2021/09/29 01:01:54;;;;;;;15.70;7.37;;;;;;;10.17;100.00;94078.72;5112890;28;20319;-75
2021/09/29 01:04:25;;;;;;;16.63;7.13;;;;;;;10.17;100.00;94075.28;5112887;28;20617;-76
2021/09/29 01:07:02;;;;;;;20.53;8.00;;;;;;;10.10;100.00;94075.22;5112859;28;20197;-75
2021/09/29 01:09:35;;;;;;;16.97;7.47;;;;;;;10.05;100.00;94077.59;5114634;28;20196;-76
2021/09/29 01:12:10;;;;;;;19.47;7.53;;;;;;;9.99;100.00;94078.34;5119318;27;20280;-76
2021/09/29 01:14:44;;;;;;;13.43;7.53;;;;;;;9.96;100.00;94078.75;5116427;28;20205;-76
2021/09/29 01:17:13;;;;;;;15.53;7.53;;;;;;;9.97;100.00;94075.94;5116485;28;20243;-76
2021/09/29 01:19:55;;;;;;;20.10;8.17;;;;;;;9.89;100.00;94076.09;5116212;28;20647;-76
2021/09/29 01:22:28;;;;;;;17.30;8.30;;;;;;;9.89;100.00;94070.88;5116396;28;20232;-76
2021/09/29 01:25:01;;;;;;;21.57;8.90;;;;;;;9.77;100.00;94069.75;5116211;28;20201;-76
2021/09/29 01:27:32;;;;;;;21.50;9.30;;;;;;;9.80;100.00;94075.38;5116042;28;20229;-76
2021/09/29 01:30:02;;;;;;;21.00;8.90;;;;;;;9.71;100.00;94070.50;5116043;28;20206;-75
2021/09/29 01:32:30;;;;;;;19.53;8.03;;;;;;;9.82;100.00;94070.00;5116025;28;20647;-76
2021/09/29 01:34:56;;;;;;;26.37;8.37;;;;;;;9.81;100.00;94068.41;5116398;28;20215;-76
2021/09/29 01:37:23;;;;;;;18.40;7.70;;;;;;;9.75;100.00;94066.53;5115894;28;20200;-77
2021/09/29 01:39:52;;;;;;;30.17;9.87;;;;;;;9.77;100.00;94059.31;5115569;27;20201;-76
2021/09/29 01:42:18;;;;;;;22.23;9.57;;;;;;;9.80;100.00;94062.34;5115839;28;20311;-76
2021/09/29 01:44:46;;;;;;;27.63;10.57;;;;;;;9.83;100.00;94066.41;5115786;28;20203;-76
2021/09/29 01:47:14;;;;;;;34.20;11.63;;;;;;;9.90;100.00;94054.22;5115622;28;20528;-76
2021/09/29 01:49:44;;;;;;;28.33;11.53;;;;;;;9.82;100.00;94056.97;5115877;28;20201;-76
2021/09/29 01:52:12;;;;;;;23.37;11.40;;;;;;;9.75;100.00;94056.91;5115820;28;20193;-76
2021/09/29 01:54:46;;;;;;;21.07;9.97;;;;;;;9.67;100.00;94048.41;5115632;28;20205;-76
2021/09/29 01:57:13;;;;;;;28.90;9.60;;;;;;;9.65;100.00;94053.00;5115491;28;20205;-76
2021/09/29 01:59:44;;;;;;;21.60;8.67;;;;;;;9.56;100.00;94052.31;5115683;28;20609;-76
2021/09/29 02:02:14;;;;;;;16.43;8.90;;;;;;;9.51;100.00;94049.47;5115605;28;20666;-76
2021/09/29 02:04:44;;;;;;;17.63;7.37;;;;;;;9.35;100.00;94055.75;5115510;28;20240;-75
2021/09/29 02:07:17;;;;;;;14.20;6.97;;;;;;;9.17;100.00;94064.78;5115421;28;20205;-76
2021/09/29 02:09:47;;;;;;;17.37;7.27;;;;;;;9.20;100.00;94064.41;5115257;28;20202;-76
2021/09/29 02:12:14;;;;;;;14.83;6.57;;;;;;;8.97;100.00;94068.97;5115555;28;20202;-75
2021/09/29 02:14:41;;;;;;;18.73;6.40;;;;;;;8.81;100.00;94075.19;5115346;28;20194;-75
2021/09/29 02:17:08;;;;;;;19.00;9.50;;;;;;;9.03;100.00;94069.03;5115325;28;20267;-75
2021/09/29 02:19:35;;;;;;;21.47;9.20;;;;;;;9.05;100.00;94076.69;5115194;28;20205;-75
2021/09/29 02:22:02;;;;;;;17.60;7.70;;;;;;;8.88;100.00;94076.88;5113945;28;20213;-76
2021/09/29 02:24:29;;;;;;;20.97;8.73;;;;;;;8.98;100.00;94081.00;5114870;28;20198;-75
2021/09/29 02:26:55;;;;;;;25.33;10.37;;;;;;;9.02;100.00;94087.47;5114757;28;20233;-76
2021/09/29 02:29:22;;;;;;;18.97;9.00;;;;;;;9.05;100.00;94084.50;5114958;28;20679;-75
2021/09/29 02:31:48;;;;;;;28.53;10.03;;;;;;;9.08;100.00;94086.72;5115056;28;20205;-75
2021/09/29 02:34:15;;;;;;;21.90;9.47;;;;;;;9.08;100.00;94084.13;5114969;28;20201;-76
2021/09/29 02:36:43;;;;;;;26.45;12.38;;;;;;;8.94;100.00;94079.75;5113749;28;20435;-76
2021/09/29 02:39:10;;;;;;;17.50;8.50;;;;;;;8.77;100.00;94085.16;5114945;28;20722;-76
2021/09/29 02:41:36;;;;;;;15.97;8.10;;;;;;;8.68;100.00;94094.88;5114694;28;20194;-75
2021/09/29 02:44:08;;;;;;;17.17;7.60;;;;;;;8.70;100.00;94095.47;5114674;28;20619;-75
2021/09/29 02:46:34;;;;;;;14.97;7.17;;;;;;;8.68;100.00;94099.28;5114680;28;20728;-76
2021/09/29 02:49:01;;;;;;;16.53;6.93;;;;;;;8.45;100.00;94101.97;5114321;28;20205;-77
2021/09/29 02:51:30;;;;;;;15.40;7.97;;;;;;;8.34;100.00;94100.56;5114400;28;20208;-76
2021/09/29 02:53:58;;;;;;;14.73;7.73;;;;;;;8.22;100.00;94096.81;5114404;28;20660;-75
2021/09/29 02:56:25;;;;;;;27.17;9.47;;;;;;;8.28;100.00;94098.69;5114579;28;20682;-75
2021/09/29 02:58:54;;;;;;;19.03;9.30;;;;;;;8.26;100.00;94103.25;5114454;28;20210;-76
2021/09/29 03:01:21;;;;;;;19.30;9.03;;;;;;;8.19;100.00;94097.16;5114329;28;20197;-76
2021/09/29 03:03:47;;;;;;;28.37;11.23;;;;;;;8.36;100.00;94095.19;5114190;28;20698;-75
2021/09/29 03:06:14;;;;;;;23.80;10.20;;;;;;;8.37;100.00;94095.00;5114046;28;20713;-76
2021/09/29 03:08:43;;;;;;;23.03;9.40;;;;;;;8.28;100.00;94103.91;5114295;28;20197;-75
2021/09/29 03:11:19;;;;;;;23.67;11.17;;;;;;;8.36;100.00;94090.81;5113996;28;20197;-76
2021/09/29 03:13:54;;;;;;;29.80;12.70;;;;;;;8.95;100.00;94100.41;5114220;27;20205;-76
2021/09/29 03:16:20;;;;;;;29.83;13.33;;;;;;;9.17;100.00;94109.06;5114028;28;20204;-76
2021/09/29 03:18:56;;;;;;;26.77;11.87;;;;;;;9.00;100.00;94112.88;5114240;28;20201;-76
2021/09/29 03:21:26;;;;;;;27.10;9.60;;;;;;;8.99;100.00;94117.28;5118779;27;20224;-75
2021/09/29 03:23:57;;;;;;;20.77;8.40;;;;;;;9.12;100.00;94124.44;5134389;27;20273;-76
2021/09/29 03:26:27;;;;;;;16.43;7.00;;;;;;;9.13;100.00;94126.06;5134181;27;20625;-76
2021/09/29 03:29:00;;;;;;;20.60;7.33;;;;;;;9.19;100.00;94127.94;5134367;27;20204;-76
2021/09/29 03:31:36;;;;;;;12.23;6.10;;;;;;;9.19;100.00;94127.94;5134469;27;20196;-76
2021/09/29 03:34:03;;;;;;;10.57;5.23;;;;;;;9.26;100.00;94126.22;5134481;27;20287;-76
2021/09/29 03:36:33;;;;;;;10.73;3.93;;;;;;;9.47;100.00;94127.22;5134207;27;20196;-76
2021/09/29 03:39:05;;;;;;;7.07;2.83;;;;;;;9.77;100.00;94129.72;5134224;27;20558;-77
2021/09/29 03:41:34;;;;;;;5.37;3.13;;;;;;;9.67;100.00;94124.00;5134505;27;20204;-76
2021/09/29 03:44:01;;;;;;;6.50;2.60;;;;;;;9.59;100.00;94136.19;5134157;27;20288;-76
2021/09/29 03:46:30;;;;;;;4.57;2.17;;;;;;;9.51;100.00;94136.31;5134163;27;20205;-76
2021/09/29 03:48:59;;;;;;;4.77;2.43;;;;;;;9.37;100.00;94137.13;5134210;27;20192;-76
2021/09/29 03:51:29;;;;;;;4.20;2.50;;;;;;;9.18;100.00;94143.75;5134073;27;20200;-76
2021/09/29 03:53:58;;;;;;;6.73;2.67;;;;;;;9.08;100.00;94144.03;5133976;27;20650;-76
2021/09/29 03:56:27;;;;;;;9.67;2.50;;;;;;;9.10;100.00;94141.25;5133979;27;20197;-76
2021/09/29 03:59:02;;;;;;;4.43;1.90;;;;;;;9.32;100.00;94139.50;5134075;27;20540;-76
2021/09/29 04:01:28;;;;;;;2.50;1.90;;;;;;;9.48;100.00;94143.69;5133946;27;20748;-76
2021/09/29 04:03:59;;;;;;;5.83;2.53;;;;;;;9.62;100.00;94135.78;5133636;28;20575;-76
2021/09/29 04:06:27;;;;;;;6.37;1.93;;;;;;;9.57;100.00;94145.97;5133903;28;20196;-76
2021/09/29 04:08:53;;;;;;;5.57;2.00;;;;;;;9.64;100.00;94148.63;5133896;28;20236;-76
2021/09/29 04:11:38;;;;;;;4.20;1.60;;;;;;;9.92;100.00;94146.09;5133713;28;20677;-76
2021/09/29 04:14:07;;;;;;;7.87;2.00;;;;;;;9.84;100.00;94148.84;5134056;28;20222;-76
2021/09/29 04:16:34;;;;;;;3.47;1.80;;;;;;;9.82;100.00;94156.03;5133788;27;20288;-77
2021/09/29 04:19:02;;;;;;;6.07;1.50;;;;;;;9.88;100.00;94150.09;5133643;28;20591;-77
2021/09/29 04:21:29;;;;;;;4.70;1.37;;;;;;;9.95;100.00;94153.56;5133562;28;20667;-76
2021/09/29 04:23:55;;;;;;;6.23;1.93;;;;;;;9.82;100.00;94156.88;5133784;28;20295;-76
2021/09/29 04:26:23;;;;;;;9.70;1.50;;;;;;;9.70;100.00;94154.94;5133475;28;20587;-77
2021/09/29 04:28:50;;;;;;;4.90;1.53;;;;;;;9.54;100.00;94164.59;5133732;28;20719;-77
2021/09/29 04:31:19;;;;;;;3.23;1.50;;;;;;;9.31;100.00;94166.53;5133527;28;20554;-77
2021/09/29 04:33:50;;;;;;;3.77;1.37;;;;;;;9.20;100.00;94166.00;5133775;28;20197;-76
2021/09/29 04:36:16;;;;;;;5.13;1.90;;;;;;;9.24;100.00;94163.84;5133559;28;20678;-76
2021/09/29 04:38:43;;;;;;;7.60;1.77;;;;;;;9.28;100.00;94167.72;5133688;27;20197;-76
2021/09/29 04:41:12;;;;;;;8.13;1.90;;;;;;;9.25;100.00;94155.03;5133495;28;20681;-76
2021/09/29 04:43:40;;;;;;;7.13;2.00;;;;;;;9.20;100.00;94165.22;5133801;27;20216;-76
2021/09/29 04:46:06;;;;;;;5.63;2.47;;;;;;;9.16;100.00;94167.38;5137531;27;20197;-76
2021/09/29 04:48:39;;;;;;;4.13;1.90;;;;;;;9.13;100.00;94162.53;5137489;27;20553;-76
2021/09/29 04:51:14;;;;;;;4.23;1.67;;;;;;;9.09;100.00;94166.47;5137654;27;20237;-75
2021/09/29 04:53:46;;;;;;;7.23;2.53;;;;;;;9.06;100.00;94157.22;5137532;27;20253;-76
2021/09/29 04:56:18;;;;;;;2.53;1.60;;;;;;;9.01;100.00;94159.56;5137393;27;20197;-76
2021/09/29 04:58:45;;;;;;;4.40;1.90;;;;;;;8.98;100.00;94164.34;5137511;27;20208;-76
2021/09/29 05:01:12;;;;;;;2.50;1.57;;;;;;;8.85;100.00;94164.97;5137355;27;20212;-76
2021/09/29 05:03:40;;;;;;;5.50;1.90;;;;;;;8.72;100.00;94162.97;5137220;27;20277;-76
2021/09/29 05:06:07;;;;;;;4.03;1.80;;;;;;;8.67;100.00;94167.91;5137225;27;20201;-76
2021/09/29 05:08:35;;;;;;;2.97;1.97;;;;;;;8.52;100.00;94173.91;5137036;27;20528;-76
2021/09/29 05:11:07;;;;;;;4.30;1.83;;;;;;;8.40;100.00;94183.13;5137277;27;20197;-76
2021/09/29 05:13:35;;;;;;;4.60;1.70;;;;;;;8.28;100.00;94169.72;5133319;27;20696;-76
2021/09/29 05:16:04;;;;;;;3.13;1.57;;;;;;;8.22;100.00;94174.81;5137188;27;20197;-76
2021/09/29 05:18:31;;;;;;;3.70;2.00;;;;;;;8.11;100.00;94174.25;5136964;27;20291;-75
2021/09/29 05:20:59;;;;;;;4.03;1.97;;;;;;;8.03;100.00;94183.94;5137024;27;20200;-76
2021/09/29 05:23:26;;;;;;;3.13;2.03;;;;;;;7.89;100.00;94182.88;5136606;27;20224;-76
2021/09/29 05:25:53;;;;;;;4.90;2.07;;;;;;;7.80;100.00;94187.31;5136767;27;20201;-78
2021/09/29 05:28:30;;;;;;;6.97;1.83;;;;;;;7.77;100.00;94180.66;5095958;28;20213;-76
2021/09/29 05:30:59;;;;;;;5.17;2.20;;;;;;;7.91;100.00;94184.34;5095896;28;20259;-76
2021/09/29 05:33:29;;;;;;;6.63;2.43;;;;;;;7.82;100.00;94189.75;5095709;28;20221;-76
2021/09/29 05:35:57;;;;;;;7.77;2.53;;;;;;;7.80;100.00;94187.31;5095669;28;20206;-76
2021/09/29 05:38:27;;;;;;;5.27;2.13;;;;;;;7.75;100.00;94184.44;5095863;28;20207;-77
2021/09/29 05:40:57;;;;;;;9.27;2.50;;;;;;;7.65;100.00;94189.88;5095660;28;20194;-76
2021/09/29 05:43:25;;;;;;;8.23;2.70;;;;;;;7.83;100.00;94191.34;5095675;28;20343;-76
2021/09/29 05:45:54;;;;;;;10.60;3.37;;;;;;;7.77;100.00;94187.66;5095547;28;20218;-76
2021/09/29 05:48:20;;;;;;;9.47;2.70;;;;;;;7.65;100.00;94192.47;5095447;28;20206;-76
2021/09/29 05:50:47;;;;;;;7.93;2.83;;;;;;;7.57;100.00;94188.09;5095693;28;20202;-76
2021/09/29 05:53:13;;;;;;;5.57;2.77;;;;;;;7.64;100.00;94190.81;5095486;28;20216;-76
2021/09/29 05:55:44;;;;;;;5.00;2.33;;;;;;;7.66;100.00;94194.09;5094174;28;20201;-76
2021/09/29 05:58:13;;;;;;;6.33;2.63;;;;;;;7.67;100.00;94193.09;5095409;28;20202;-76
2021/09/29 06:00:45;;;;;;;9.10;2.73;;;;;;;7.72;100.00;94200.38;5095289;28;20233;-77
2021/09/29 06:03:12;;;;;;;4.87;2.43;;;;;;;7.70;100.00;94197.16;5095106;28;20232;-76
2021/09/29 06:05:41;;;;;;;7.30;2.47;;;;;;;7.63;100.00;94204.00;5095408;28;20205;-76
2021/09/29 06:08:08;;;;;;;8.03;2.30;;;;;;;7.56;100.00;94206.47;5095195;28;20224;-77
2021/09/29 06:10:37;;;;;;;4.07;2.70;;;;;;;7.55;100.00;94210.06;5095059;28;20202;-76
2021/09/29 06:13:12;;;;;;;10.33;3.13;;;;;;;7.62;100.00;94207.59;5095109;28;20202;-76
2021/09/29 06:15:49;;;;;;;13.80;2.77;;;;;;;7.62;100.00;94213.59;5094934;28;20229;-75
2021/09/29 06:18:18;;;;;;;9.90;3.10;;;;;;;7.57;100.00;94213.28;5095021;28;20201;-76
2021/09/29 06:20:49;;;;;;;7.73;2.97;;;;;;;7.63;100.00;94215.22;5094994;28;20216;-76
2021/09/29 06:23:20;;;;;;;6.00;2.53;;;;;;;7.61;100.00;94209.38;5094757;28;20226;-76
2021/09/29 06:25:48;;;;;;;6.93;2.93;;;;;;;7.75;100.00;94200.84;5094816;28;20208;-76
2021/09/29 06:28:16;;;;;;;13.10;3.15;;;;;;;7.79;100.00;94206.50;5134376;27;20441;-76
2021/09/29 06:30:42;;;;;;;5.20;2.70;;;;;;;7.81;100.00;94212.34;5135498;27;20202;-76
2021/09/29 06:33:09;;;;;;;13.50;2.53;;;;;;;7.79;100.00;94211.69;5135442;27;20697;-76
2021/09/29 06:35:36;;;;;;;10.03;2.97;;;;;;;7.93;100.00;94215.34;5135217;27;20196;-76
2021/09/29 06:38:04;;;;;;;11.23;3.30;;;;;;;8.12;100.00;94211.47;5135470;27;20209;-76
2021/09/29 06:40:31;;;;;;;10.73;3.17;;;;;;;8.39;100.00;94217.09;5135285;27;20207;-75
2021/09/29 06:43:03;;;;;;;9.63;3.03;;;;;;;8.60;100.00;94219.88;5135395;27;20253;-75
2021/09/29 06:45:32;;;;;;;8.57;2.37;;;;;;;8.61;100.00;94216.31;5134988;27;20207;-77
2021/09/29 06:48:00;;;;;;;2.13;1.67;;;;;;;8.56;100.00;94216.03;5135374;27;20257;-76
2021/09/29 06:50:27;;;;;;;6.97;1.77;;;;;;;8.56;100.00;94212.59;5135133;27;20228;-76
2021/09/29 06:52:53;;;;;;;3.63;1.97;;;;;;;8.57;100.00;94211.63;5134974;27;20201;-76
2021/09/29 06:55:20;;;;;;;5.17;1.80;;;;;;;8.62;100.00;94217.91;5135070;27;20197;-76
2021/09/29 06:57:46;;;;;;;3.93;1.67;;;;;;;8.78;100.00;94211.75;5135258;27;20204;-76
2021/09/29 07:00:15;;;;;;;3.87;1.87;;;;;;;8.90;100.00;94209.50;5134979;27;20238;-76
2021/09/29 07:02:44;;;;;;;4.23;1.63;;;;;;;8.98;100.00;94208.63;5135029;27;20196;-77
2021/09/29 07:05:11;;;;;;;3.00;1.33;;;;;;;9.04;100.00;94206.09;5134922;27;20352;-76
2021/09/29 07:07:37;;;;;;;4.63;1.80;;;;;;;9.16;100.00;94214.25;5134530;27;20200;-76
2021/09/29 07:10:07;;;;;;;2.97;1.40;;;;;;;9.33;100.00;94216.69;5131135;27;20584;-76
2021/09/29 07:12:34;;;;;;;3.83;1.37;;;;;;;9.49;100.00;94219.06;5134918;27;20197;-76
2021/09/29 07:15:00;;;;;;;3.87;1.30;;;;;;;9.64;100.00;94226.84;5134773;27;20201;-76
2021/09/29 07:17:27;;;;;;;4.47;1.30;;;;;;;9.85;100.00;94215.66;5134799;27;20196;-76
2021/09/29 07:19:57;;;;;;;4.03;1.20;;;;;;;10.10;100.00;94226.53;5134516;27;20208;-76
2021/09/29 07:22:23;;;;;;;4.47;1.20;;;;;;;10.44;100.00;94226.84;5134546;27;20283;-76
2021/09/29 07:24:50;;;;;;;4.87;1.43;;;;;;;10.81;100.00;94223.16;5134384;27;20228;-77
2021/09/29 07:27:16;;;;;;;4.10;1.27;;;;;;;11.03;100.00;94236.94;5134258;27;20710;-76
2021/09/29 07:29:43;;;;;;;6.63;1.73;;;;;;;11.40;100.00;94219.25;5134508;27;20201;-76
2021/09/29 07:32:09;;;;;;;4.93;1.40;;;;;;;11.83;100.00;94232.09;5134476;27;20196;-76
2021/09/29 07:34:36;;;;;;;3.00;0.80;;;;;;;12.06;100.00;94230.97;5134250;27;20199;-76
2021/09/29 07:37:04;;;;;;;2.17;0.80;;;;;;;12.20;100.00;94232.59;5133361;27;20196;-77
2021/09/29 07:39:31;;;;;;;4.50;0.70;;;;;;;12.32;100.00;94239.88;5134398;27;20196;-76
2021/09/29 07:41:57;;;;;;;3.85;1.10;;;;;;;12.40;100.00;94231.81;5134209;27;20703;-76
2021/09/29 07:44:24;;;;;;;1.67;0.85;;;;;;;12.46;100.00;94231.03;5134186;27;20232;-75
2021/09/29 07:46:50;;;;;;;10.32;0.93;;;;;;;12.49;100.00;94237.66;5134168;27;20204;-75
2021/09/29 07:49:21;;;;;;;8.82;1.00;;;;;;;12.62;100.00;94244.72;5134219;27;20201;-76
2021/09/29 07:51:48;;;;;;;3.00;0.90;;;;;;;12.66;100.00;94231.03;5134289;27;20250;-76
2021/09/29 07:54:16;;;;;;;6.20;1.10;;;;;;;12.62;100.00;94236.88;5134248;27;20200;-75
2021/09/29 07:56:42;;;;;;;3.00;0.80;;;;;;;12.67;100.00;94232.63;5134122;27;20200;-76
2021/09/29 07:59:09;;;;;;;3.15;0.90;;;;;;;12.69;100.00;94219.34;5134059;27;20237;-75
2021/09/29 08:01:35;;;;;;;7.10;0.95;;;;;;;12.78;100.00;94221.56;5133911;27;20293;-76
2021/09/29 08:04:02;;;;;;;3.22;0.70;;;;;;;12.86;100.00;94228.41;5133724;27;20216;-76
2021/09/29 08:06:29;;;;;;;5.03;0.93;;;;;;;12.79;100.00;94230.22;5133907;27;20536;-76
2021/09/29 08:08:56;;;;;;;1.70;0.80;;;;;;;12.87;100.00;94232.66;5134001;28;20551;-76
2021/09/29 08:11:24;;;;;;;4.40;0.90;;;;;;;13.12;100.00;94224.94;5133908;28;20208;-77
2021/09/29 08:13:50;;;;;;;1.85;0.77;;;;;;;13.10;100.00;94231.41;5133922;28;20239;-76
2021/09/29 08:16:16;;;;;;;5.75;0.82;;;;;;;13.06;100.00;94225.75;5133773;28;20205;-77
2021/09/29 08:18:43;;;;;;;4.78;0.70;;;;;;;13.28;100.00;94228.13;5134429;27;20560;-77
2021/09/29 08:21:15;;;;;;;3.13;0.82;;;;;;;13.47;100.00;94229.09;5138211;27;20208;-76
2021/09/29 08:23:43;;;;;;;5.15;0.88;;;;;;;13.52;100.00;94231.91;5138159;27;20259;-76
2021/09/29 08:29:11;;;;;;;4.28;1.17;;;;;;;13.62;100.00;94229.69;5138026;27;20199;-76
2021/09/29 08:31:40;;;;;;;1.85;0.80;;;;;;;13.95;100.00;94233.97;5137875;27;20203;-76
2021/09/29 08:34:14;;;;;;;2.53;0.57;;;;;;;13.85;100.00;94238.84;5137990;27;20200;-76
2021/09/29 08:36:46;;;;;;;4.05;0.93;;;;;;;13.56;100.00;94243.63;5137819;27;20313;-76
2021/09/29 08:39:15;;;;;;;4.03;0.80;;;;;;;13.62;100.00;94240.19;5137721;27;20650;-77
2021/09/29 08:44:44;;;;;;;4.80;0.80;;;;;;;13.69;100.00;94240.94;5088517;27;20227;-76
2021/09/29 08:47:16;;;;;;;3.13;0.80;;;;;;;13.89;100.00;94232.19;5137035;27;20437;-77
2021/09/29 08:49:56;;;;;;;3.70;0.85;;;;;;;13.98;100.00;94236.16;5137431;27;20201;-77
2021/09/29 08:52:36;;;;;;;4.00;0.90;;;;;;;14.12;100.00;94239.56;5137444;27;20692;-77
2021/09/29 08:55:31;;;;;;;2.60;0.70;;;;;;;14.07;100.00;94240.16;5137601;27;20208;-77
2021/09/29 09:17:39;;;;;;;2.97;1.00;;;;;;;13.71;100.00;94248.63;5137049;27;20338;-77
2021/09/29 09:20:15;;;;;;;4.40;1.05;;;;;;;13.55;99.48;94243.81;5137245;27;20203;-77
2021/09/29 09:22:42;;;;;;;2.97;0.85;;;;;;;13.64;100.00;94248.63;5137089;27;20215;-75
2021/09/29 09:25:13;;;;;;;1.67;0.77;;;;;;;13.66;98.43;94251.84;5136723;27;20232;-76
2021/09/29 09:27:41;;;;;;;3.17;0.80;;;;;;;13.94;96.61;94242.88;5136688;27;20275;-75
2021/09/29 09:30:09;;;;;;;6.13;1.00;;;;;;;14.35;97.33;94246.88;5136559;27;20208;-77
2021/09/29 09:32:49;;;;;;;5.03;0.77;;;;;;;14.88;97.12;94242.28;5136652;27;20643;-77
2021/09/29 09:35:15;;;;;;;2.85;0.90;;;;;;;14.98;88.32;94226.81;5136597;27;20408;-78
2021/09/29 09:37:51;;;;;;;4.10;0.75;;;;;;;14.86;93.52;94233.81;5136548;27;20205;-77
2021/09/29 09:40:18;;;;;;;6.13;0.80;;;;;;;15.14;88.04;94231.53;5136804;27;20203;-77
2021/09/29 09:42:47;;;;;;;4.40;0.90;;;;;;;15.45;84.25;94231.63;5136624;27;20201;-79
2021/09/29 09:45:14;;;;;;;1.95;0.95;;;;;;;15.69;87.51;94222.03;5136383;27;20228;-79
2021/09/29 09:47:46;;;;;;;1.83;0.70;;;;;;;15.53;83.15;94226.84;5136462;27;20196;-77
2021/09/29 09:50:25;;;;;;;5.65;1.05;;;;;;;15.88;86.91;94218.38;5114075;27;20243;-77
2021/09/29 09:52:51;;;;;;;3.05;0.65;;;;;;;15.97;83.09;94220.69;5095212;28;20664;-77
2021/09/29 09:55:21;;;;;;;3.47;0.70;;;;;;;15.65;82.09;94220.88;5095363;28;20197;-75
2021/09/29 09:57:52;;;;;;;3.35;0.80;;;;;;;15.76;84.12;94217.53;5095320;28;20243;-77
2021/09/29 10:00:24;;;;;;;2.45;0.88;;;;;;;15.84;85.12;94209.31;5095110;28;20209;-78
2021/09/29 10:02:54;;;;;;;3.75;0.80;;;;;;;15.73;79.02;94215.28;5095341;28;20198;-77
2021/09/29 10:05:21;;;;;;;1.80;0.45;;;;;;;15.75;81.23;94209.81;5095165;28;20228;-76
2021/09/29 10:07:49;;;;;;;6.35;0.85;;;;;;;15.51;80.57;94215.75;5095072;28;20206;-77
2021/09/29 10:10:22;;;;;;;6.05;0.80;;;;;;;15.26;83.22;94212.41;5094926;28;20199;-76
2021/09/29 10:13:07;;;;;;;3.08;0.75;;;;;;;15.25;81.37;94211.56;5094934;28;20198;-77
2021/09/29 10:24:09;;;;;;;4.47;1.00;;;;;;;15.71;81.42;94212.09;5105308;28;20430;-77
2021/09/29 10:26:34;;;;;;;3.70;0.80;;;;;;;15.72;81.11;94211.88;5114997;28;20225;-77
2021/09/29 10:29:06;;;;;;;1.30;0.60;;;;;;;15.68;79.27;94202.78;5115193;28;20208;-77
2021/09/29 10:31:44;;;;;;;6.82;1.05;;;;;;;16.14;80.38;94203.25;5114913;28;20209;-77
2021/09/29 10:34:26;;;;;;;2.38;0.63;;;;;;;15.94;74.80;94197.44;5115281;28;20605;-76
2021/09/29 10:37:26;;;;;;;0.88;0.50;;;;;;;15.95;81.51;94202.47;5115073;28;20197;-77
2021/09/29 10:42:54;;;;;;;2.90;0.63;;;;;;;15.99;82.52;94205.50;5114022;28;20276;-77
2021/09/29 10:45:41;;;;;;;2.75;0.68;;;;;;;16.11;81.92;94197.63;5114688;28;20278;-79
2021/09/29 10:48:28;;;;;;;1.88;0.85;;;;;;;16.35;79.86;94198.50;5114674;28;20651;-77
2021/09/29 10:51:21;;;;;;;2.92;0.80;;;;;;;15.94;76.88;94192.16;5114680;28;20205;-76
2021/09/29 11:28:00;;;;;;;5.63;0.73;;;;;;;15.81;76.44;94188.69;5113719;28;20718;-77
2021/09/29 11:30:26;;;;;;;2.22;0.70;;;;;;;15.94;78.12;94171.09;5113865;28;20652;-76
2021/09/29 11:32:56;;;;;;;2.65;0.80;;;;;;;15.67;79.98;94181.94;5114164;28;20194;-78
2021/09/29 11:35:32;;;;;;;9.50;1.08;;;;;;;15.56;80.36;94180.09;5113918;28;20208;-78
2021/09/29 11:38:30;;;;;;;4.90;0.90;;;;;;;15.25;84.46;94180.00;5113833;28;20215;-79
2021/09/29 12:08:36;;;;;;;1.75;0.60;;;;;;;16.34;80.45;94155.53;5134140;28;20204;-78
2021/09/29 12:11:06;;;;;;;5.20;1.02;;;;;;;16.37;83.04;94154.25;5133939;28;20291;-78
2021/09/29 12:13:43;;;;;;;1.60;0.70;;;;;;;16.54;76.52;94149.94;5133863;28;20228;-78
2021/09/29 12:16:09;;;;;;;5.20;0.75;;;;;;;16.08;81.71;94148.84;5134062;28;20242;-79
2021/09/29 12:18:36;;;;;;;3.22;0.70;;;;;;;16.08;78.72;94140.94;5133953;28;20204;-79
2021/09/29 12:21:03;;;;;;;6.47;0.85;;;;;;;16.46;80.90;94139.75;5133946;27;20196;-76
2021/09/29 12:23:30;;;;;;;4.78;0.73;;;;;;;16.55;78.96;94134.94;5133719;28;20197;-78
2021/09/29 12:26:18;;;;;;;3.25;0.88;;;;;;;16.57;78.75;94144.22;5133731;28;20229;-78
2021/09/29 12:29:00;;;;;;;1.83;0.60;;;;;;;16.66;78.80;94136.78;5133907;28;20205;-77
2021/09/29 12:31:44;;;;;;;2.72;0.65;;;;;;;16.80;77.82;94135.53;5133804;27;20205;-77
2021/09/29 12:34:23;;;;;;;5.20;0.70;;;;;;;17.26;75.06;94141.00;5133716;28;20196;-78
2021/09/29 12:36:50;;;;;;;1.83;0.60;;;;;;;16.80;74.88;94142.59;5133777;28;20276;-76
2021/09/29 12:39:18;;;;;;;1.00;0.55;;;;;;;16.51;74.86;94139.84;5133707;28;20200;-77
2021/09/29 12:41:47;;;;;;;4.60;0.73;;;;;;;16.59;71.98;94134.25;5133593;28;20197;-76
2021/09/29 12:44:16;;;;;;;3.45;0.80;;;;;;;16.90;75.15;94136.78;5133581;28;20200;-78
2021/09/29 12:46:49;;;;;;;3.30;0.75;;;;;;;17.14;74.79;94140.22;5133387;28;20196;-79
2021/09/29 12:49:19;;;;;;;7.40;0.82;;;;;;;17.41;73.67;94139.72;5133425;28;20257;-77
2021/09/29 12:51:50;;;;;;;2.80;0.80;;;;;;;17.84;75.94;94144.50;5133307;28;20678;-78
2021/09/29 12:54:20;;;;;;;3.28;0.68;;;;;;;18.16;77.40;94143.22;5133633;28;20254;-79
2021/09/29 12:56:46;;;;;;;1.15;0.40;;;;;;;17.82;72.05;94143.09;5133496;28;20204;-79
2021/09/29 12:59:14;;;;;;;3.03;0.50;;;;;;;18.26;72.35;94141.53;5133359;28;20532;-78
2021/09/29 13:01:41;;;;;;;4.97;0.65;;;;;;;18.22;73.88;94142.25;5133422;28;20200;-78
2021/09/29 13:04:07;;;;;;;3.35;1.13;;;;;;;18.16;69.96;94145.88;5133527;27;20216;-77
2021/09/29 13:06:33;;;;;;;2.80;0.60;;;;;;;17.87;66.86;94151.16;5136660;27;20232;-79
2021/09/29 13:09:00;;;;;;;3.55;0.55;;;;;;;17.80;72.84;94137.28;5137211;27;20196;-79
2021/09/29 13:11:27;;;;;;;4.15;0.40;;;;;;;17.38;70.54;94133.03;5137229;27;20197;-79
2021/09/29 13:13:53;;;;;;;3.17;0.55;;;;;;;17.21;72.20;94138.25;5137089;27;20219;-77
2021/09/29 13:16:21;;;;;;;1.33;0.50;;;;;;;17.23;72.45;94138.03;5136848;27;20200;-77
2021/09/29 13:18:55;;;;;;;7.63;0.50;;;;;;;17.19;69.31;94148.25;5137115;27;20555;-77